createdAt,value
2023-08-07T00:01:18.186Z,16.02
2023-08-07T00:05:20.223Z,16.03
2023-08-07T00:09:21.916Z,16.00
2023-08-07T00:13:24.061Z,15.98
2023-08-07T00:17:26.115Z,16.14
2023-08-07T00:21:28.105Z,15.98
2023-08-07T00:25:30.157Z,15.75
2023-08-07T00:29:32.329Z,15.77
2023-08-07T00:33:34.379Z,15.67
2023-08-07T00:37:36.482Z,15.71
2023-08-07T00:41:38.185Z,15.51
2023-08-07T00:45:46.100Z,15.40
2023-08-07T00:49:49.578Z,15.51
2023-08-07T00:53:51.677Z,15.49
2023-08-07T00:57:53.925Z,15.67
2023-08-07T01:01:56.208Z,15.52
2023-08-07T01:05:58.352Z,15.50
2023-08-07T01:10:04.260Z,15.55
2023-08-07T01:14:19.367Z,15.55
2023-08-07T01:18:23.476Z,15.56
2023-08-07T01:22:25.448Z,15.52
2023-08-07T01:26:27.671Z,15.65
2023-08-07T01:30:38.198Z,15.61
2023-08-07T01:34:42.608Z,15.46
2023-08-07T01:38:45.616Z,15.49
2023-08-07T01:42:48.572Z,15.41
2023-08-07T01:46:50.549Z,15.38
2023-08-07T01:50:54.558Z,15.53
2023-08-07T01:54:56.344Z,15.28
2023-08-07T01:58:58.364Z,15.54
2023-08-07T02:03:00.500Z,15.40
2023-08-07T02:07:02.828Z,15.22
2023-08-07T02:11:04.853Z,15.19
2023-08-07T02:15:07.548Z,15.27
2023-08-07T02:19:09.602Z,15.13
2023-08-07T02:23:11.582Z,15.22
2023-08-07T02:27:13.709Z,15.20
2023-08-07T02:31:15.734Z,15.30
2023-08-07T02:35:17.986Z,15.37
2023-08-07T02:39:20.045Z,15.00
2023-08-07T02:43:22.016Z,15.04
2023-08-07T02:47:24.566Z,15.29
2023-08-07T02:51:26.565Z,15.20
2023-08-07T02:55:29.083Z,15.18
2023-08-07T02:59:31.312Z,15.26
2023-08-07T03:03:33.958Z,15.21
2023-08-07T03:07:36.021Z,15.16
2023-08-07T03:11:38.114Z,15.29
2023-08-07T03:15:40.436Z,15.10
2023-08-07T03:19:44.165Z,15.17
2023-08-07T03:23:47.715Z,15.16
2023-08-07T03:27:49.803Z,15.11
2023-08-07T03:31:51.887Z,14.98
2023-08-07T03:35:54.606Z,15.10
2023-08-07T03:39:57.152Z,15.12
2023-08-07T03:44:00.481Z,15.04
2023-08-07T03:48:02.670Z,15.04
2023-08-07T03:52:05.799Z,15.01
2023-08-07T03:56:07.902Z,14.88
2023-08-07T04:00:12.643Z,14.92
2023-08-07T04:04:17.359Z,14.80
2023-08-07T04:08:19.749Z,14.93
2023-08-07T04:12:21.980Z,14.85
2023-08-07T04:16:23.972Z,14.88
2023-08-07T04:20:26.039Z,15.01
2023-08-07T04:24:29.521Z,15.01
2023-08-07T04:28:31.587Z,14.79
2023-08-07T04:32:33.921Z,15.08
2023-08-07T04:36:35.988Z,15.00
2023-08-07T04:40:37.962Z,14.93
2023-08-07T04:44:39.993Z,15.01
2023-08-07T04:48:42.297Z,15.12
2023-08-07T04:52:44.312Z,15.11
2023-08-07T04:56:46.102Z,15.16
2023-08-07T05:00:48.299Z,15.20
2023-08-07T05:04:50.341Z,15.22
2023-08-07T05:08:52.325Z,15.21
2023-08-07T05:12:56.880Z,15.19
2023-08-07T05:17:00.626Z,15.46
2023-08-07T05:21:04.149Z,15.43
2023-08-07T05:25:06.255Z,15.42
2023-08-07T05:29:08.914Z,15.46
2023-08-07T05:33:11.150Z,15.35
2023-08-07T05:37:13.170Z,15.10
2023-08-07T05:41:14.883Z,15.06
2023-08-07T05:45:16.898Z,14.94
2023-08-07T05:49:18.908Z,15.06
2023-08-07T05:53:20.900Z,15.06
2023-08-07T05:57:22.894Z,15.21
2023-08-07T06:01:30.457Z,15.05
2023-08-07T06:05:32.588Z,15.19
2023-08-07T06:09:34.617Z,15.08
2023-08-07T06:13:36.872Z,15.03
2023-08-07T06:17:40.446Z,14.89
2023-08-07T06:21:42.626Z,14.64
2023-08-07T06:25:44.627Z,14.77
2023-08-07T06:29:46.672Z,14.72
2023-08-07T06:33:48.686Z,14.79
2023-08-07T06:37:50.720Z,14.89
2023-08-07T06:41:52.813Z,15.20
2023-08-07T06:46:00.674Z,15.17
2023-08-07T06:50:02.755Z,15.18
2023-08-07T06:54:05.397Z,15.49
2023-08-07T06:58:07.433Z,15.31
2023-08-07T07:02:09.419Z,15.41
2023-08-07T07:06:11.390Z,15.46
2023-08-07T07:10:13.613Z,15.46
2023-08-07T07:14:15.821Z,15.62
2023-08-07T07:18:17.978Z,16.33
2023-08-07T07:22:20.005Z,16.88
2023-08-07T07:26:22.617Z,16.49
2023-08-07T07:30:24.734Z,16.47
2023-08-07T07:34:26.866Z,17.04
2023-08-07T07:38:28.872Z,16.83
2023-08-07T07:42:30.868Z,16.48
2023-08-07T07:46:33.592Z,16.32
2023-08-07T07:50:35.672Z,16.80
2023-08-07T07:54:37.692Z,16.92
2023-08-07T07:58:39.748Z,16.76
2023-08-07T08:02:43.722Z,16.49
2023-08-07T08:06:45.866Z,16.41
2023-08-07T08:10:48.958Z,16.42
2023-08-07T08:14:56.253Z,16.43
2023-08-07T08:18:58.562Z,16.74
2023-08-07T08:23:00.903Z,16.81
2023-08-07T08:27:03.176Z,16.76
2023-08-07T08:31:06.540Z,16.86
2023-08-07T08:35:08.988Z,16.98
2023-08-07T08:39:11.008Z,16.95
2023-08-07T08:43:13.550Z,17.17
2023-08-07T08:47:16.157Z,16.92
2023-08-07T08:51:19.521Z,16.99
2023-08-07T08:55:22.524Z,16.84
2023-08-07T08:59:24.699Z,17.01
2023-08-07T09:03:27.398Z,17.20
2023-08-07T09:07:29.656Z,17.21
2023-08-07T09:11:32.043Z,17.45
2023-08-07T09:15:34.512Z,17.48
2023-08-07T09:19:36.556Z,18.16
2023-08-07T09:23:38.583Z,18.61
2023-08-07T09:27:40.643Z,19.06
2023-08-07T09:31:46.670Z,18.99
2023-08-07T09:35:48.708Z,18.94
2023-08-07T09:39:51.996Z,19.45
2023-08-07T09:43:54.087Z,19.16
2023-08-07T09:47:59.949Z,19.19
2023-08-07T09:52:08.081Z,19.64
2023-08-07T09:56:10.585Z,19.15
2023-08-07T10:00:16.498Z,18.86
2023-08-07T10:04:18.751Z,18.45
2023-08-07T10:08:22.384Z,18.76
2023-08-07T10:12:24.432Z,19.36
2023-08-07T10:16:31.152Z,19.86
2023-08-07T10:20:33.381Z,19.78
2023-08-07T10:24:41.402Z,19.63
2023-08-07T10:28:44.482Z,19.31
2023-08-07T10:32:46.891Z,19.61
2023-08-07T10:36:48.933Z,19.21
2023-08-07T10:41:07.944Z,19.53
2023-08-07T10:45:09.924Z,20.17
2023-08-07T10:49:11.915Z,20.49
2023-08-07T10:53:33.106Z,19.82
2023-08-07T10:57:35.124Z,19.69
2023-08-07T11:01:39.900Z,19.63
2023-08-07T11:05:42.044Z,19.43
2023-08-07T11:09:44.102Z,19.22
2023-08-07T11:13:46.357Z,19.87
2023-08-07T11:17:48.481Z,19.97
2023-08-07T11:21:51.926Z,19.81
2023-08-07T11:25:54.553Z,19.59
2023-08-07T11:29:56.382Z,19.64
2023-08-07T11:33:59.218Z,19.65
2023-08-07T11:38:01.620Z,19.93
2023-08-07T11:42:03.501Z,21.07
2023-08-07T11:46:08.130Z,20.98
2023-08-07T11:50:11.025Z,21.74
2023-08-07T11:54:15.544Z,21.47
2023-08-07T11:58:17.494Z,20.93
2023-08-07T12:02:25.171Z,21.80
2023-08-07T12:06:27.535Z,21.92
2023-08-07T12:10:29.304Z,21.40
2023-08-07T12:14:32.099Z,20.85
2023-08-07T12:18:34.309Z,20.54
2023-08-07T12:22:36.738Z,20.73
2023-08-07T12:26:38.686Z,20.53
2023-08-07T12:30:41.516Z,20.13
2023-08-07T12:38:48.887Z,19.57
2023-08-07T12:42:52.011Z,19.19
2023-08-07T12:46:53.762Z,19.28
2023-08-07T12:50:55.847Z,19.48
2023-08-07T12:54:57.842Z,19.78
2023-08-07T12:58:59.901Z,19.87
2023-08-07T13:03:01.887Z,19.87
2023-08-07T13:07:04.434Z,20.08
2023-08-07T13:11:06.461Z,20.29
2023-08-07T13:15:10.295Z,20.27
2023-08-07T13:19:12.318Z,20.29
2023-08-07T13:23:15.303Z,20.19
2023-08-07T13:27:17.231Z,20.15
2023-08-07T13:31:19.419Z,20.52
2023-08-07T13:35:21.452Z,20.55
2023-08-07T13:39:23.463Z,20.35
2023-08-07T13:43:25.621Z,20.15
2023-08-07T13:47:27.863Z,19.76
2023-08-07T13:51:29.885Z,19.72
2023-08-07T13:55:31.966Z,19.65
2023-08-07T13:59:34.093Z,19.53
2023-08-07T14:03:36.279Z,19.49
2023-08-07T14:07:38.293Z,19.46
2023-08-07T14:11:40.934Z,19.55
2023-08-07T14:15:43.089Z,19.40
2023-08-07T14:19:45.526Z,19.48
2023-08-07T14:23:49.230Z,19.63
2023-08-07T14:27:51.323Z,19.87
2023-08-07T14:31:53.352Z,19.94
2023-08-07T14:35:55.357Z,20.09
2023-08-07T14:39:57.069Z,19.91
2023-08-07T14:43:59.175Z,19.52
2023-08-07T14:48:01.203Z,18.81
2023-08-07T14:52:03.571Z,18.65
2023-08-07T14:56:05.557Z,18.38
2023-08-07T15:00:09.757Z,18.58
2023-08-07T15:04:12.120Z,19.41
2023-08-07T15:08:14.363Z,19.78
2023-08-07T15:12:16.341Z,19.83
2023-08-07T15:16:18.448Z,19.70
2023-08-07T15:20:21.073Z,19.80
2023-08-07T15:24:23.142Z,19.81
2023-08-07T15:28:25.254Z,19.76
2023-08-07T15:32:27.374Z,19.45
2023-08-07T15:36:29.608Z,19.38
2023-08-07T15:40:31.696Z,19.31
2023-08-07T15:44:33.874Z,19.34
2023-08-07T15:48:35.966Z,19.30
2023-08-07T15:52:38.089Z,19.18
2023-08-07T15:56:40.159Z,19.21
2023-08-07T16:00:42.170Z,19.73
2023-08-07T16:04:44.228Z,19.94
2023-08-07T16:08:46.831Z,20.16
2023-08-07T16:12:49.082Z,20.10
2023-08-07T16:16:52.657Z,19.88
2023-08-07T16:20:54.713Z,19.84
2023-08-07T16:24:56.816Z,19.72
2023-08-07T16:28:58.824Z,19.61
2023-08-07T16:33:00.973Z,19.53
2023-08-07T16:37:03.946Z,19.52
2023-08-07T16:41:05.961Z,19.46
2023-08-07T16:45:08.663Z,19.38
2023-08-07T16:49:10.815Z,19.36
2023-08-07T16:53:12.778Z,19.35
2023-08-07T16:57:15.691Z,19.39
2023-08-07T17:01:17.813Z,19.20
2023-08-07T17:05:23.337Z,19.48
2023-08-07T17:09:25.397Z,19.59
2023-08-07T17:13:27.443Z,19.53
2023-08-07T17:17:29.446Z,19.46
2023-08-07T17:21:31.537Z,19.31
2023-08-07T17:25:33.645Z,19.23
2023-08-07T17:29:35.758Z,19.22
2023-08-07T17:33:38.374Z,19.23
2023-08-07T17:37:40.334Z,18.97
2023-08-07T17:41:42.395Z,18.95
2023-08-07T17:45:44.659Z,18.78
2023-08-07T17:49:46.793Z,18.80
2023-08-07T17:53:48.766Z,18.60
2023-08-07T17:57:51.634Z,18.48
2023-08-07T18:01:53.617Z,18.67
2023-08-07T18:05:56.432Z,18.54
2023-08-07T18:09:58.768Z,18.45
2023-08-07T18:14:00.801Z,18.56
2023-08-07T18:18:03.046Z,18.59
2023-08-07T18:22:05.193Z,18.75
2023-08-07T18:26:07.199Z,18.73
2023-08-07T18:30:09.708Z,18.75
2023-08-07T18:34:13.019Z,18.66
2023-08-07T18:38:15.271Z,18.51
2023-08-07T18:42:17.232Z,18.29
2023-08-07T18:46:19.311Z,18.28
2023-08-07T18:50:21.480Z,18.28
2023-08-07T18:54:25.469Z,18.19
2023-08-07T18:58:27.586Z,18.11
2023-08-07T19:02:29.807Z,18.17
2023-08-07T19:06:33.674Z,18.29
2023-08-07T19:10:36.106Z,18.22
2023-08-07T19:14:38.359Z,18.23
2023-08-07T19:18:40.376Z,18.27
2023-08-07T19:22:42.702Z,18.11
2023-08-07T19:26:44.822Z,18.06
2023-08-07T19:31:00.062Z,18.15
2023-08-07T19:35:08.059Z,18.06
2023-08-07T19:39:10.289Z,18.03
2023-08-07T19:43:12.303Z,17.85
2023-08-07T19:47:25.876Z,17.80
2023-08-07T19:51:36.754Z,17.71
2023-08-07T19:55:38.815Z,17.66
2023-08-07T19:59:40.964Z,17.54
2023-08-07T20:03:43.100Z,17.50
2023-08-07T20:07:45.155Z,17.37
2023-08-07T20:11:47.206Z,17.39
2023-08-07T20:15:49.279Z,17.11
2023-08-07T20:19:51.727Z,17.14
2023-08-07T20:23:54.143Z,17.00
2023-08-07T20:27:56.128Z,17.00
2023-08-07T20:32:00.299Z,16.91
2023-08-07T20:36:02.717Z,16.88
2023-08-07T20:40:05.355Z,16.75
2023-08-07T20:44:07.584Z,16.56
2023-08-07T20:48:09.873Z,16.53
2023-08-07T20:52:12.103Z,16.52
2023-08-07T20:56:14.365Z,16.49
2023-08-07T21:00:17.237Z,16.45
2023-08-07T21:04:19.435Z,16.46
2023-08-07T21:08:21.482Z,16.52
2023-08-07T21:12:23.654Z,16.41
2023-08-07T21:16:26.191Z,16.45
2023-08-07T21:20:28.226Z,16.53
2023-08-07T21:24:30.493Z,16.54
2023-08-07T21:28:35.007Z,16.65
2023-08-07T21:32:37.168Z,16.61
2023-08-07T21:36:39.317Z,16.67
2023-08-07T21:40:41.361Z,16.71
2023-08-07T21:44:43.517Z,16.58
2023-08-07T21:48:45.983Z,16.62
2023-08-07T21:52:48.335Z,16.67
2023-08-07T21:56:50.584Z,16.54
2023-08-07T22:00:52.835Z,16.57
2023-08-07T22:04:54.944Z,16.69
2023-08-07T22:08:57.080Z,16.61
2023-08-07T22:12:59.112Z,16.58
2023-08-07T22:17:01.241Z,16.51
2023-08-07T22:21:03.452Z,16.49
2023-08-07T22:25:05.932Z,16.44
2023-08-07T22:29:08.032Z,16.20
2023-08-07T22:33:10.141Z,16.23
2023-08-07T22:37:12.344Z,16.25
2023-08-07T22:41:15.631Z,16.29
2023-08-07T22:45:17.632Z,16.49
2023-08-07T22:49:21.130Z,16.36
2023-08-07T22:53:23.493Z,16.44
2023-08-07T22:57:25.549Z,16.46
2023-08-07T23:01:27.779Z,16.55
2023-08-07T23:05:29.554Z,16.42
2023-08-07T23:09:32.007Z,16.45
2023-08-07T23:13:34.287Z,16.55
2023-08-07T23:17:36.500Z,16.42
2023-08-07T23:21:38.563Z,16.40
2023-08-07T23:25:40.608Z,16.38
2023-08-07T23:29:43.489Z,16.25
2023-08-07T23:33:45.624Z,16.37
2023-08-07T23:37:47.717Z,16.36
2023-08-07T23:41:49.952Z,16.38
2023-08-07T23:45:52.030Z,16.51
2023-08-07T23:49:54.102Z,16.61
2023-08-07T23:53:56.218Z,16.42
2023-08-07T23:57:58.231Z,16.39
